createdAt,value
2017-09-06T00:02:08.134Z,10.23
2017-09-06T00:04:35.636Z,8.90
2017-09-06T00:07:03.140Z,14.70
2017-09-06T00:09:30.687Z,14.67
2017-09-06T00:11:58.191Z,6.93
2017-09-06T00:14:26.562Z,7.47
2017-09-06T00:16:54.077Z,7.53
2017-09-06T00:19:21.567Z,8.87
2017-09-06T00:21:49.105Z,9.37
2017-09-06T00:24:16.628Z,6.33
2017-09-06T00:26:44.169Z,9.53
2017-09-06T00:29:11.668Z,15.63
2017-09-06T00:31:39.186Z,18.37
2017-09-06T00:34:06.707Z,7.13
2017-09-06T00:36:34.211Z,8.50
2017-09-06T00:39:01.727Z,8.23
2017-09-06T00:41:29.240Z,7.53
2017-09-06T00:43:56.747Z,8.33
2017-09-06T00:46:24.271Z,6.73
2017-09-06T00:48:51.772Z,10.97
2017-09-06T00:51:19.282Z,6.60
2017-09-06T00:53:46.818Z,5.70
2017-09-06T00:56:14.444Z,7.17
2017-09-06T00:58:41.973Z,6.90
2017-09-06T01:01:09.477Z,8.00
2017-09-06T01:03:37.009Z,10.67
2017-09-06T01:06:04.540Z,8.27
2017-09-06T01:08:32.053Z,9.57
2017-09-06T01:10:59.552Z,10.27
2017-09-06T01:13:27.088Z,10.50
2017-09-06T01:15:54.608Z,20.33
2017-09-06T01:18:22.143Z,17.90
2017-09-06T01:20:49.662Z,20.00
2017-09-06T01:23:17.163Z,19.17
2017-09-06T01:25:44.699Z,21.00
2017-09-06T01:28:12.214Z,21.97
2017-09-06T01:30:39.735Z,21.83
2017-09-06T01:33:07.299Z,25.93
2017-09-06T01:35:34.813Z,23.20
2017-09-06T01:38:02.320Z,27.53
2017-09-06T01:40:30.734Z,32.37
2017-09-06T01:42:58.245Z,27.87
2017-09-06T01:45:26.554Z,29.67
2017-09-06T01:47:54.074Z,27.93
2017-09-06T01:50:21.575Z,26.37
2017-09-06T01:52:49.114Z,23.90
2017-09-06T01:55:16.634Z,26.53
2017-09-06T01:57:44.187Z,23.97
2017-09-06T02:00:11.802Z,26.00
2017-09-06T02:02:39.331Z,19.37
2017-09-06T02:05:06.920Z,17.97
2017-09-06T02:07:34.439Z,21.43
2017-09-06T02:10:02.000Z,17.20
2017-09-06T02:12:29.500Z,16.50
2017-09-06T02:14:57.012Z,18.87
2017-09-06T02:17:25.299Z,11.53
2017-09-06T02:19:52.804Z,11.00
2017-09-06T02:22:20.329Z,10.17
2017-09-06T02:24:47.850Z,13.03
2017-09-06T02:27:15.394Z,13.53
2017-09-06T02:29:42.910Z,14.30
2017-09-06T02:32:10.420Z,9.13
2017-09-06T02:34:37.966Z,10.10
2017-09-06T02:37:05.485Z,9.40
2017-09-06T02:39:33.002Z,8.57
2017-09-06T02:42:00.544Z,6.73
2017-09-06T02:44:28.054Z,9.30
2017-09-06T02:46:55.583Z,6.80
2017-09-06T02:49:23.093Z,4.20
2017-09-06T02:51:50.607Z,4.97
2017-09-06T02:54:18.133Z,6.70
2017-09-06T02:56:45.662Z,9.63
2017-09-06T02:59:13.175Z,6.20
2017-09-06T03:01:40.714Z,6.73
2017-09-06T03:04:08.227Z,5.20
2017-09-06T03:06:35.756Z,5.07
2017-09-06T03:09:03.256Z,8.13
2017-09-06T03:11:30.756Z,4.80
2017-09-06T03:13:58.302Z,5.47
2017-09-06T03:16:25.792Z,8.47
2017-09-06T03:18:53.306Z,7.20
2017-09-06T03:21:20.837Z,5.60
2017-09-06T03:23:48.338Z,6.80
2017-09-06T03:26:15.845Z,5.87
2017-09-06T03:28:43.364Z,8.33
2017-09-06T03:31:10.869Z,10.30
2017-09-06T03:33:38.399Z,11.33
2017-09-06T03:36:05.996Z,8.40
2017-09-06T03:38:33.496Z,10.53
2017-09-06T03:41:01.030Z,7.30
2017-09-06T03:43:28.537Z,8.53
2017-09-06T03:45:56.039Z,8.17
2017-09-06T03:48:23.585Z,17.23
2017-09-06T03:50:51.862Z,6.80
2017-09-06T03:53:19.359Z,6.80
2017-09-06T03:55:46.889Z,7.60
2017-09-06T03:58:14.418Z,11.33
2017-09-06T04:00:41.939Z,8.83
2017-09-06T04:03:09.459Z,10.67
2017-09-06T04:05:37.002Z,6.27
2017-09-06T04:08:04.518Z,7.63
2017-09-06T04:10:32.026Z,6.30
2017-09-06T04:12:59.567Z,12.10
2017-09-06T04:15:27.059Z,6.00
2017-09-06T04:17:54.598Z,9.90
2017-09-06T04:20:22.091Z,6.80
2017-09-06T04:22:49.603Z,8.10
2017-09-06T04:25:17.138Z,8.63
2017-09-06T04:27:44.665Z,8.70
2017-09-06T04:30:12.205Z,7.03
2017-09-06T04:32:39.700Z,7.37
2017-09-06T04:35:07.215Z,14.83
2017-09-06T04:37:34.726Z,9.93
2017-09-06T04:40:02.265Z,6.40
2017-09-06T04:42:29.782Z,9.47
2017-09-06T04:44:57.348Z,6.60
2017-09-06T04:47:24.871Z,6.20
2017-09-06T04:49:52.372Z,6.53
2017-09-06T04:52:19.881Z,6.27
2017-09-06T04:54:47.408Z,6.50
2017-09-06T04:57:14.917Z,9.83
2017-09-06T04:59:42.430Z,18.13
2017-09-06T05:02:10.055Z,9.83
2017-09-06T05:04:37.547Z,21.23
2017-09-06T05:07:05.059Z,7.70
2017-09-06T05:09:32.574Z,7.23
2017-09-06T05:12:00.108Z,8.80
2017-09-06T05:14:27.645Z,6.00
2017-09-06T05:16:55.184Z,6.10
2017-09-06T05:19:22.685Z,7.50
2017-09-06T05:21:50.223Z,7.60
2017-09-06T05:24:17.754Z,6.53
2017-09-06T05:26:45.339Z,8.93
2017-09-06T05:29:12.856Z,9.23
2017-09-06T05:31:40.464Z,7.60
2017-09-06T05:34:08.002Z,7.93
2017-09-06T05:36:35.499Z,11.20
2017-09-06T05:39:03.000Z,7.97
2017-09-06T05:41:31.301Z,9.13
2017-09-06T05:43:58.799Z,12.03
2017-09-06T05:46:26.337Z,7.93
2017-09-06T05:48:53.854Z,10.90
2017-09-06T05:51:21.351Z,7.60
2017-09-06T05:53:48.876Z,7.90
2017-09-06T05:56:16.376Z,7.20
2017-09-06T05:58:43.868Z,7.90
2017-09-06T06:01:11.419Z,6.70
2017-09-06T06:03:38.931Z,8.33
2017-09-06T06:06:06.490Z,10.10
2017-09-06T06:08:33.992Z,8.93
2017-09-06T06:11:01.507Z,5.77
2017-09-06T06:13:29.037Z,7.03
2017-09-06T06:15:56.549Z,6.90
2017-09-06T06:18:24.067Z,12.43
2017-09-06T06:20:51.571Z,10.47
2017-09-06T06:23:19.122Z,13.33
2017-09-06T06:25:46.638Z,8.07
2017-09-06T06:28:14.135Z,7.27
2017-09-06T06:30:41.665Z,9.47
2017-09-06T06:33:09.201Z,10.80
2017-09-06T06:35:36.739Z,7.40
2017-09-06T06:38:04.250Z,7.60
2017-09-06T06:40:31.770Z,4.97
2017-09-06T06:42:59.288Z,4.37
2017-09-06T06:45:26.799Z,4.27
2017-09-06T06:47:54.320Z,7.33
2017-09-06T06:50:21.835Z,5.53
2017-09-06T06:52:49.356Z,3.73
2017-09-06T06:55:16.872Z,3.20
2017-09-06T06:57:44.626Z,4.50
2017-09-06T07:00:12.142Z,3.67
2017-09-06T07:02:39.644Z,5.50
2017-09-06T07:05:07.190Z,3.57
2017-09-06T07:07:34.688Z,5.37
2017-09-06T07:10:02.202Z,3.30
2017-09-06T07:12:29.735Z,6.00
2017-09-06T07:14:57.245Z,5.23
2017-09-06T07:17:24.786Z,6.83
2017-09-06T07:19:52.279Z,3.13
2017-09-06T07:22:19.771Z,4.23
2017-09-06T07:24:47.466Z,7.23
2017-09-06T07:27:14.973Z,4.20
2017-09-06T07:29:42.482Z,5.60
2017-09-06T07:32:10.033Z,6.73
2017-09-06T07:34:37.546Z,6.60
2017-09-06T07:37:05.165Z,7.00
2017-09-06T07:39:32.697Z,6.80
2017-09-06T07:42:00.279Z,8.17
2017-09-06T07:44:27.826Z,10.40
2017-09-06T07:46:55.346Z,6.53
2017-09-06T07:49:22.861Z,9.10
2017-09-06T07:51:50.413Z,11.10
2017-09-06T07:54:17.939Z,13.17
2017-09-06T07:56:45.486Z,11.80
2017-09-06T07:59:13.002Z,10.70
2017-09-06T08:01:40.530Z,11.13
2017-09-06T08:04:08.090Z,11.50
2017-09-06T08:06:35.597Z,9.10
2017-09-06T08:09:03.146Z,11.00
2017-09-06T08:11:30.662Z,26.03
2017-09-06T08:13:58.189Z,9.77
2017-09-06T08:16:25.726Z,13.50
2017-09-06T08:18:53.238Z,11.53
2017-09-06T08:21:20.790Z,12.47
2017-09-06T08:23:48.310Z,10.97
2017-09-06T08:26:15.862Z,8.93
2017-09-06T08:28:43.377Z,9.40
2017-09-06T08:31:10.894Z,7.00
2017-09-06T08:33:38.435Z,5.63
2017-09-06T08:36:05.954Z,8.90
2017-09-06T08:38:33.478Z,8.40
2017-09-06T08:41:01.015Z,8.03
2017-09-06T08:43:28.555Z,8.90
2017-09-06T08:45:56.098Z,6.30
2017-09-06T08:48:23.613Z,6.33
2017-09-06T08:50:51.130Z,11.00
2017-09-06T08:53:18.682Z,18.10
2017-09-06T08:55:46.199Z,9.67
2017-09-06T08:58:13.710Z,7.00
2017-09-06T09:00:41.250Z,6.60
2017-09-06T09:03:08.765Z,6.73
2017-09-06T09:05:36.284Z,6.20
2017-09-06T09:08:03.829Z,6.77
2017-09-06T09:10:31.351Z,7.37
2017-09-06T09:12:58.868Z,7.23
2017-09-06T09:15:26.402Z,7.97
2017-09-06T09:17:53.910Z,6.87
2017-09-06T09:20:21.446Z,8.30
2017-09-06T09:22:48.959Z,7.17
2017-09-06T09:25:16.489Z,4.30
2017-09-06T09:27:43.998Z,3.53
2017-09-06T09:30:11.552Z,3.40
2017-09-06T09:32:39.062Z,8.13
2017-09-06T09:35:06.578Z,4.30
2017-09-06T09:37:34.115Z,5.03
2017-09-06T09:40:01.634Z,2.80
2017-09-06T09:42:29.177Z,3.53
2017-09-06T09:44:56.686Z,4.53
2017-09-06T09:47:24.268Z,3.50
2017-09-06T09:49:51.822Z,2.40
2017-09-06T09:52:19.339Z,2.77
2017-09-06T09:54:46.902Z,1.93
2017-09-06T09:57:14.418Z,3.20
2017-09-06T09:59:41.957Z,2.50
2017-09-06T10:02:09.494Z,6.83
2017-09-06T10:04:37.074Z,5.67
2017-09-06T10:07:04.614Z,4.40
2017-09-06T10:09:32.123Z,8.50
2017-09-06T10:11:59.635Z,10.50
2017-09-06T10:14:27.177Z,11.87
2017-09-06T10:16:54.767Z,8.17
2017-09-06T10:19:22.318Z,8.13
2017-09-06T10:21:49.886Z,8.27
2017-09-06T10:24:17.430Z,19.57
2017-09-06T10:26:44.951Z,11.23
2017-09-06T10:29:12.465Z,9.03
2017-09-06T10:31:40.009Z,14.00
2017-09-06T10:34:07.530Z,15.10
2017-09-06T10:36:35.041Z,15.73
2017-09-06T10:39:02.698Z,10.10
2017-09-06T10:41:30.219Z,14.20
2017-09-06T10:43:57.739Z,19.87
2017-09-06T10:46:25.274Z,16.63
2017-09-06T10:48:52.780Z,13.70
2017-09-06T10:51:20.389Z,17.20
2017-09-06T10:53:47.911Z,21.13
2017-09-06T10:56:16.179Z,17.93
2017-09-06T10:58:43.707Z,15.50
2017-09-06T11:01:11.208Z,21.43
2017-09-06T11:03:38.712Z,17.17
2017-09-06T11:06:06.262Z,17.73
2017-09-06T11:08:33.776Z,22.30
2017-09-06T11:11:01.302Z,24.07
2017-09-06T11:13:28.950Z,22.10
2017-09-06T11:15:56.448Z,23.93
2017-09-06T11:18:23.966Z,20.60
2017-09-06T11:20:51.515Z,17.67
2017-09-06T11:23:19.008Z,28.73
2017-09-06T11:25:46.518Z,14.03
2017-09-06T11:28:14.053Z,15.07
2017-09-06T11:30:41.569Z,24.90
2017-09-06T11:33:09.205Z,20.13
2017-09-06T11:35:36.722Z,16.40
2017-09-06T11:38:04.323Z,15.93
2017-09-06T11:40:31.843Z,18.10
2017-09-06T11:42:59.348Z,16.93
2017-09-06T11:45:26.876Z,12.67
2017-09-06T11:47:54.397Z,20.87
2017-09-06T11:50:21.918Z,16.70
2017-09-06T11:52:49.453Z,12.03
2017-09-06T11:55:16.975Z,14.00
2017-09-06T11:57:44.501Z,13.73
2017-09-06T12:00:12.019Z,11.77
2017-09-06T12:02:39.525Z,5.70
2017-09-06T12:05:07.064Z,9.83
2017-09-06T12:07:34.591Z,12.57
2017-09-06T12:10:02.088Z,12.20
2017-09-06T12:12:29.611Z,12.33
2017-09-06T12:14:57.302Z,10.90
2017-09-06T12:17:24.818Z,12.13
2017-09-06T12:19:52.331Z,11.27
2017-09-06T12:22:19.875Z,13.13
2017-09-06T12:24:47.414Z,10.70
2017-09-06T12:27:14.947Z,13.80
2017-09-06T12:29:42.486Z,7.53
2017-09-06T12:32:10.007Z,11.83
2017-09-06T12:34:37.519Z,9.70
2017-09-06T12:37:05.042Z,12.50
2017-09-06T12:39:32.582Z,10.23
2017-09-06T12:42:00.083Z,14.07
2017-09-06T12:44:27.579Z,13.90
2017-09-06T12:46:55.104Z,11.13
2017-09-06T12:49:22.604Z,14.80
2017-09-06T12:51:50.130Z,10.07
2017-09-06T12:54:17.624Z,9.97
2017-09-06T12:56:45.152Z,10.40
2017-09-06T12:59:12.666Z,15.40
2017-09-06T13:01:40.313Z,13.23
2017-09-06T13:04:07.822Z,5.80
2017-09-06T13:06:35.324Z,21.60
2017-09-06T13:09:02.875Z,7.27
2017-09-06T13:11:30.374Z,13.87
2017-09-06T13:13:57.901Z,19.37
2017-09-06T13:16:25.428Z,16.10
2017-09-06T13:18:53.019Z,17.97
2017-09-06T13:21:20.571Z,11.63
2017-09-06T13:23:48.092Z,14.40
2017-09-06T13:26:15.593Z,16.80
2017-09-06T13:28:43.130Z,13.37
2017-09-06T13:31:10.637Z,8.50
2017-09-06T13:33:38.174Z,11.77
2017-09-06T13:36:05.682Z,10.43
2017-09-06T13:38:33.229Z,8.53
2017-09-06T13:41:00.732Z,15.90
2017-09-06T13:43:28.234Z,11.47
2017-09-06T13:45:55.760Z,11.77
2017-09-06T13:48:23.260Z,8.80
2017-09-06T13:50:50.793Z,10.93
2017-09-06T13:53:18.306Z,10.10
2017-09-06T13:55:45.843Z,13.73
2017-09-06T13:58:13.345Z,13.33
2017-09-06T14:00:40.876Z,10.17
2017-09-06T14:03:08.371Z,15.33
2017-09-06T14:05:35.872Z,16.37
2017-09-06T14:08:03.428Z,16.07
2017-09-06T14:10:30.940Z,15.53
2017-09-06T14:12:58.451Z,9.33
2017-09-06T14:15:26.011Z,8.03
2017-09-06T14:17:53.530Z,25.10
2017-09-06T14:20:21.059Z,17.53
2017-09-06T14:22:48.606Z,15.50
2017-09-06T14:25:16.115Z,9.83
2017-09-06T14:27:43.610Z,7.97
2017-09-06T14:30:11.133Z,13.13
2017-09-06T14:32:38.650Z,8.33
2017-09-06T14:35:06.180Z,17.30
2017-09-06T14:37:33.698Z,11.50
2017-09-06T14:40:01.210Z,11.73
2017-09-06T14:42:28.772Z,16.23
2017-09-06T14:44:56.324Z,11.30
2017-09-06T14:47:23.861Z,8.10
2017-09-06T14:49:51.384Z,20.87
2017-09-06T14:52:18.930Z,16.20
2017-09-06T14:54:46.427Z,12.50
2017-09-06T14:57:13.942Z,10.20
2017-09-06T14:59:41.473Z,10.07
2017-09-06T15:02:08.973Z,18.20
2017-09-06T15:04:36.519Z,15.23
2017-09-06T15:07:04.053Z,10.77
2017-09-06T15:09:31.557Z,20.97
2017-09-06T15:11:59.178Z,14.10
2017-09-06T15:14:26.699Z,10.33
2017-09-06T15:16:54.382Z,11.60
2017-09-06T15:19:21.880Z,24.80
2017-09-06T15:21:49.408Z,15.23
2017-09-06T15:24:16.922Z,9.33
2017-09-06T15:26:44.452Z,12.57
2017-09-06T15:29:11.969Z,19.80
2017-09-06T15:31:39.502Z,8.77
2017-09-06T15:34:08.029Z,14.77
2017-09-06T15:36:35.564Z,16.20
2017-09-06T15:39:03.080Z,10.87
2017-09-06T15:41:30.665Z,15.57
2017-09-06T15:43:58.191Z,17.10
2017-09-06T15:46:25.702Z,15.23
2017-09-06T15:48:53.199Z,14.57
2017-09-06T15:51:20.727Z,17.07
2017-09-06T15:53:48.224Z,34.73
2017-09-06T15:56:15.835Z,11.10
2017-09-06T15:58:43.355Z,11.10
2017-09-06T16:01:10.901Z,18.83
2017-09-06T16:03:38.413Z,19.93
2017-09-06T16:06:05.932Z,14.50
2017-09-06T16:08:33.456Z,13.47
2017-09-06T16:11:00.988Z,20.73
2017-09-06T16:13:28.534Z,19.80
2017-09-06T16:15:56.046Z,16.37
2017-09-06T16:18:23.562Z,14.83
2017-09-06T16:20:51.098Z,21.70
2017-09-06T16:23:18.603Z,17.80
2017-09-06T16:25:46.127Z,15.33
2017-09-06T16:28:14.392Z,23.83
2017-09-06T16:30:42.682Z,14.43
2017-09-06T16:33:10.587Z,16.50
2017-09-06T16:35:38.111Z,16.90
2017-09-06T16:38:05.631Z,32.23
2017-09-06T16:40:33.127Z,26.13
2017-09-06T16:43:00.656Z,21.60
2017-09-06T16:45:28.169Z,15.10
2017-09-06T16:47:56.437Z,12.17
2017-09-06T16:50:23.974Z,17.80
2017-09-06T16:52:51.471Z,19.23
2017-09-06T16:55:18.972Z,19.07
2017-09-06T16:57:46.516Z,23.17
2017-09-06T17:00:14.048Z,19.93
2017-09-06T17:02:41.581Z,17.40
2017-09-06T17:05:09.130Z,21.40
2017-09-06T17:07:36.643Z,26.20
2017-09-06T17:10:04.163Z,13.90
2017-09-06T17:12:31.689Z,22.93
2017-09-06T17:14:59.216Z,20.73
2017-09-06T17:17:26.741Z,17.07
2017-09-06T17:19:54.307Z,22.00
2017-09-06T17:22:22.614Z,17.57
2017-09-06T17:24:50.136Z,22.60
2017-09-06T17:27:17.636Z,18.90
2017-09-06T17:29:45.151Z,17.40
2017-09-06T17:32:13.454Z,12.07
2017-09-06T17:34:41.024Z,19.63
2017-09-06T17:37:08.547Z,19.13
2017-09-06T17:39:36.090Z,20.47
2017-09-06T17:42:03.596Z,15.63
2017-09-06T17:44:31.141Z,19.57
2017-09-06T17:46:58.667Z,17.17
2017-09-06T17:49:26.187Z,16.80
2017-09-06T17:51:53.724Z,18.53
2017-09-06T17:54:21.252Z,16.83
2017-09-06T17:56:48.760Z,19.60
2017-09-06T17:59:16.285Z,15.50
2017-09-06T18:01:43.806Z,13.03
2017-09-06T18:04:11.335Z,21.93
2017-09-06T18:06:38.839Z,13.93
2017-09-06T18:09:06.345Z,22.37
2017-09-06T18:11:33.914Z,16.83
2017-09-06T18:14:01.427Z,19.83
2017-09-06T18:16:28.965Z,29.40
2017-09-06T18:18:56.478Z,18.97
2017-09-06T18:21:23.999Z,33.67
2017-09-06T18:23:51.538Z,19.67
2017-09-06T18:26:19.056Z,22.07
2017-09-06T18:28:46.605Z,17.33
2017-09-06T18:31:14.134Z,16.97
2017-09-06T18:33:41.693Z,13.30
2017-09-06T18:36:09.354Z,15.43
2017-09-06T18:38:36.867Z,21.63
2017-09-06T18:41:05.136Z,17.67
2017-09-06T18:43:32.676Z,21.87
2017-09-06T18:46:00.175Z,31.00
2017-09-06T18:48:27.680Z,17.77
2017-09-06T18:50:55.234Z,12.53
2017-09-06T18:53:22.754Z,19.63
2017-09-06T18:55:50.270Z,22.10
2017-09-06T18:58:17.810Z,20.90
2017-09-06T19:00:45.316Z,14.00
2017-09-06T19:03:12.861Z,18.67
2017-09-06T19:05:40.368Z,18.47
2017-09-06T19:08:07.931Z,14.40
2017-09-06T19:10:35.435Z,32.90
2017-09-06T19:13:02.973Z,22.93
2017-09-06T19:15:30.481Z,15.67
2017-09-06T19:17:58.022Z,22.27
2017-09-06T19:20:25.546Z,21.90
2017-09-06T19:22:53.096Z,15.40
2017-09-06T19:25:20.621Z,21.13
2017-09-06T19:27:48.156Z,17.73
2017-09-06T19:30:16.424Z,24.17
2017-09-06T19:32:43.928Z,27.20
2017-09-06T19:35:11.467Z,16.57
2017-09-06T19:37:38.995Z,19.50
2017-09-06T19:40:06.542Z,23.83
2017-09-06T19:42:34.168Z,18.47
2017-09-06T19:45:01.686Z,19.80
2017-09-06T19:47:29.995Z,21.57
2017-09-06T19:49:57.522Z,22.67
2017-09-06T19:52:25.067Z,16.80
2017-09-06T19:54:52.580Z,18.80
2017-09-06T19:57:20.107Z,23.00
2017-09-06T19:59:47.641Z,23.63
2017-09-06T20:02:15.144Z,24.17
2017-09-06T20:04:42.652Z,18.33
2017-09-06T20:07:10.206Z,31.43
2017-09-06T20:09:37.715Z,21.73
2017-09-06T20:12:05.249Z,34.10
2017-09-06T20:14:32.772Z,18.33
2017-09-06T20:17:00.273Z,22.20
2017-09-06T20:19:27.845Z,22.60
2017-09-06T20:21:55.377Z,25.97
2017-09-06T20:24:22.934Z,24.73
2017-09-06T20:26:50.486Z,32.77
2017-09-06T20:29:17.996Z,36.37
2017-09-06T20:31:45.520Z,29.30
2017-09-06T20:34:13.831Z,25.63
2017-09-06T20:36:41.370Z,33.83
2017-09-06T20:39:08.894Z,26.87
2017-09-06T20:41:36.400Z,19.80
2017-09-06T20:44:03.920Z,30.57
2017-09-06T20:46:31.421Z,19.40
2017-09-06T20:48:58.948Z,33.83
2017-09-06T20:51:26.448Z,27.70
2017-09-06T20:53:53.966Z,23.50
2017-09-06T20:56:21.505Z,18.50
2017-09-06T20:58:49.040Z,32.77
2017-09-06T21:01:16.561Z,24.37
2017-09-06T21:03:44.101Z,30.63
2017-09-06T21:06:11.600Z,25.63
2017-09-06T21:08:39.252Z,34.07
2017-09-06T21:11:06.752Z,30.77
2017-09-06T21:13:34.370Z,22.53
2017-09-06T21:16:01.905Z,29.37
2017-09-06T21:18:29.408Z,30.43
2017-09-06T21:20:56.944Z,33.83
2017-09-06T21:23:24.452Z,24.13
2017-09-06T21:25:51.982Z,22.93
2017-09-06T21:28:19.521Z,25.73
2017-09-06T21:30:47.019Z,21.27
2017-09-06T21:33:14.574Z,31.23
2017-09-06T21:35:42.076Z,25.13
2017-09-06T21:38:09.584Z,24.30
2017-09-06T21:40:37.113Z,30.97
2017-09-06T21:43:05.403Z,24.13
2017-09-06T21:45:32.937Z,31.73
2017-09-06T21:48:00.463Z,24.37
2017-09-06T21:50:28.008Z,21.60
2017-09-06T21:52:55.526Z,33.23
2017-09-06T21:55:23.080Z,29.47
2017-09-06T21:57:50.602Z,26.77
2017-09-06T22:00:18.154Z,29.83
2017-09-06T22:02:45.656Z,40.90
2017-09-06T22:05:13.160Z,27.37
2017-09-06T22:07:40.710Z,35.10
2017-09-06T22:10:08.230Z,32.43
2017-09-06T22:12:35.760Z,23.20
2017-09-06T22:15:03.268Z,31.80
2017-09-06T22:17:30.813Z,33.90
2017-09-06T22:19:58.320Z,24.93
2017-09-06T22:22:25.853Z,41.17
2017-09-06T22:24:53.351Z,39.60
2017-09-06T22:27:21.648Z,30.00
2017-09-06T22:29:49.152Z,27.40
2017-09-06T22:32:16.739Z,39.93
2017-09-06T22:34:44.274Z,24.70
2017-09-06T22:37:11.794Z,32.77
2017-09-06T22:39:39.334Z,34.03
2017-09-06T22:42:06.849Z,31.93
2017-09-06T22:44:34.386Z,27.13
2017-09-06T22:47:01.900Z,34.20
2017-09-06T22:49:29.443Z,37.70
2017-09-06T22:51:56.967Z,24.73
2017-09-06T22:54:24.504Z,21.10
2017-09-06T22:56:52.000Z,39.13
2017-09-06T22:59:19.522Z,27.87
2017-09-06T23:01:47.047Z,27.00
2017-09-06T23:04:14.574Z,22.53
2017-09-06T23:06:42.122Z,27.13
2017-09-06T23:09:09.657Z,21.03
2017-09-06T23:11:37.177Z,29.10
2017-09-06T23:14:05.468Z,28.77
2017-09-06T23:16:32.972Z,31.33
2017-09-06T23:19:00.496Z,24.10
2017-09-06T23:21:28.060Z,22.47
2017-09-06T23:23:55.597Z,27.60
2017-09-06T23:26:23.123Z,28.40
2017-09-06T23:28:50.656Z,25.67
2017-09-06T23:31:18.174Z,35.23
2017-09-06T23:33:45.858Z,24.97
2017-09-06T23:36:13.360Z,25.97
2017-09-06T23:38:40.978Z,29.07
2017-09-06T23:41:08.531Z,27.23
2017-09-06T23:43:36.032Z,31.47
2017-09-06T23:46:03.654Z,35.37
2017-09-06T23:48:31.194Z,32.80
2017-09-06T23:50:59.461Z,38.47
2017-09-06T23:53:27.014Z,29.13
2017-09-06T23:55:54.512Z,25.83
2017-09-06T23:58:22.012Z,36.63
